sensor_id;sensor_type;location;lat;lon;timestamp;pressure;altitude;pressure_sealevel;temperature;humidity
28626;BME280;18905;42.668;23.364;2023-04-08T00:00:19;95148.81;;;6.04;100.00
28626;BME280;18905;42.668;23.364;2023-04-08T00:02:45;95154.31;;;6.13;100.00
28626;BME280;18905;42.668;23.364;2023-04-08T00:05:10;95169.81;;;6.16;100.00
28626;BME280;18905;42.668;23.364;2023-04-08T00:07:36;95169.16;;;5.82;100.00
28626;BME280;18905;42.668;23.364;2023-04-08T00:10:02;95173.69;;;5.86;100.00
28626;BME280;18905;42.668;23.364;2023-04-08T00:12:27;95166.63;;;6.14;100.00
28626;BME280;18905;42.668;23.364;2023-04-08T00:14:53;95149.84;;;5.85;100.00
28626;BME280;18905;42.668;23.364;2023-04-08T00:17:18;95085.59;;;5.56;100.00
28626;BME280;18905;42.668;23.364;2023-04-08T00:19:44;95148.09;;;5.70;100.00
28626;BME280;18905;42.668;23.364;2023-04-08T00:22:10;95174.13;;;5.93;100.00
28626;BME280;18905;42.668;23.364;2023-04-08T00:24:35;95109.75;;;5.51;100.00
28626;BME280;18905;42.668;23.364;2023-04-08T00:27:01;95108.72;;;5.47;100.00
28626;BME280;18905;42.668;23.364;2023-04-08T00:29:27;95110.44;;;5.38;100.00
28626;BME280;18905;42.668;23.364;2023-04-08T00:31:53;95147.84;;;5.43;100.00
28626;BME280;18905;42.668;23.364;2023-04-08T00:34:18;95146.59;;;5.36;100.00
28626;BME280;18905;42.668;23.364;2023-04-08T00:36:44;95174.34;;;5.45;100.00
28626;BME280;18905;42.668;23.364;2023-04-08T00:39:11;95179.16;;;5.48;100.00
28626;BME280;18905;42.668;23.364;2023-04-08T00:41:36;95149.00;;;5.37;100.00
28626;BME280;18905;42.668;23.364;2023-04-08T00:44:02;95144.84;;;5.26;100.00
28626;BME280;18905;42.668;23.364;2023-04-08T00:46:27;95112.44;;;4.99;100.00
28626;BME280;18905;42.668;23.364;2023-04-08T00:48:53;95161.13;;;5.30;100.00
28626;BME280;18905;42.668;23.364;2023-04-08T00:51:19;95184.97;;;5.55;100.00
28626;BME280;18905;42.668;23.364;2023-04-08T00:53:45;95133.50;;;5.34;100.00
28626;BME280;18905;42.668;23.364;2023-04-08T00:56:10;95177.56;;;5.70;100.00
28626;BME280;18905;42.668;23.364;2023-04-08T00:58:36;95169.81;;;5.69;100.00
28626;BME280;18905;42.668;23.364;2023-04-08T01:01:07;95135.56;;;5.42;100.00
28626;BME280;18905;42.668;23.364;2023-04-08T01:03:46;95167.66;;;5.71;100.00
28626;BME280;18905;42.668;23.364;2023-04-08T01:06:37;95184.78;;;5.98;100.00
28626;BME280;18905;42.668;23.364;2023-04-08T01:09:08;95178.50;;;6.08;100.00
28626;BME280;18905;42.668;23.364;2023-04-08T01:11:36;95164.56;;;6.06;100.00
28626;BME280;18905;42.668;23.364;2023-04-08T01:14:04;95150.38;;;6.05;100.00
28626;BME280;18905;42.668;23.364;2023-04-08T01:16:35;95179.13;;;6.42;100.00
28626;BME280;18905;42.668;23.364;2023-04-08T01:19:04;95185.28;;;6.42;100.00
28626;BME280;18905;42.668;23.364;2023-04-08T01:21:32;95149.97;;;6.17;100.00
28626;BME280;18905;42.668;23.364;2023-04-08T01:24:03;95161.53;;;5.94;100.00
28626;BME280;18905;42.668;23.364;2023-04-08T01:26:30;95143.34;;;5.62;100.00
28626;BME280;18905;42.668;23.364;2023-04-08T01:28:58;95138.47;;;5.69;100.00
28626;BME280;18905;42.668;23.364;2023-04-08T01:31:25;95164.88;;;5.81;100.00
28626;BME280;18905;42.668;23.364;2023-04-08T01:33:51;95140.81;;;5.76;100.00
28626;BME280;18905;42.668;23.364;2023-04-08T01:36:19;95147.44;;;6.07;100.00
28626;BME280;18905;42.668;23.364;2023-04-08T01:38:47;95157.59;;;6.28;100.00
28626;BME280;18905;42.668;23.364;2023-04-08T01:41:15;95144.09;;;6.33;100.00
28626;BME280;18905;42.668;23.364;2023-04-08T01:43:42;95151.41;;;6.28;100.00
28626;BME280;18905;42.668;23.364;2023-04-08T01:46:09;95186.16;;;6.56;100.00
28626;BME280;18905;42.668;23.364;2023-04-08T01:48:36;95132.06;;;6.12;100.00
28626;BME280;18905;42.668;23.364;2023-04-08T01:51:03;95169.47;;;6.22;100.00
28626;BME280;18905;42.668;23.364;2023-04-08T01:53:29;95188.09;;;6.32;100.00
28626;BME280;18905;42.668;23.364;2023-04-08T01:55:57;95131.50;;;5.92;100.00
28626;BME280;18905;42.668;23.364;2023-04-08T01:58:28;95138.59;;;5.83;100.00
28626;BME280;18905;42.668;23.364;2023-04-08T02:00:57;95149.44;;;5.96;100.00
28626;BME280;18905;42.668;23.364;2023-04-08T02:03:24;95199.31;;;6.16;100.00
28626;BME280;18905;42.668;23.364;2023-04-08T02:05:51;95162.41;;;6.08;100.00
28626;BME280;18905;42.668;23.364;2023-04-08T02:08:17;95186.69;;;6.16;100.00
28626;BME280;18905;42.668;23.364;2023-04-08T02:10:42;95161.97;;;5.77;100.00
28626;BME280;18905;42.668;23.364;2023-04-08T02:13:08;95196.84;;;5.72;100.00
28626;BME280;18905;42.668;23.364;2023-04-08T02:15:35;95180.25;;;5.70;100.00
28626;BME280;18905;42.668;23.364;2023-04-08T02:18:12;95204.25;;;5.57;100.00
28626;BME280;18905;42.668;23.364;2023-04-08T02:20:47;95153.19;;;5.20;100.00
28626;BME280;18905;42.668;23.364;2023-04-08T02:23:20;95192.97;;;5.31;100.00
28626;BME280;18905;42.668;23.364;2023-04-08T02:25:47;95165.88;;;5.38;100.00
28626;BME280;18905;42.668;23.364;2023-04-08T02:28:16;95206.66;;;5.58;100.00
28626;BME280;18905;42.668;23.364;2023-04-08T02:30:48;95209.06;;;5.55;100.00
28626;BME280;18905;42.668;23.364;2023-04-08T02:33:19;95184.03;;;5.41;100.00
28626;BME280;18905;42.668;23.364;2023-04-08T02:35:47;95204.25;;;5.57;100.00
28626;BME280;18905;42.668;23.364;2023-04-08T02:38:13;95200.03;;;5.46;100.00
28626;BME280;18905;42.668;23.364;2023-04-08T02:40:40;95209.53;;;5.62;100.00
28626;BME280;18905;42.668;23.364;2023-04-08T02:43:06;95204.28;;;5.52;100.00
28626;BME280;18905;42.668;23.364;2023-04-08T02:45:36;95178.22;;;5.34;100.00
28626;BME280;18905;42.668;23.364;2023-04-08T02:48:02;95126.00;;;5.08;100.00
28626;BME280;18905;42.668;23.364;2023-04-08T02:50:28;95108.97;;;4.99;100.00
28626;BME280;18905;42.668;23.364;2023-04-08T02:52:54;95192.00;;;5.46;100.00
28626;BME280;18905;42.668;23.364;2023-04-08T02:55:20;95153.81;;;5.12;100.00
28626;BME280;18905;42.668;23.364;2023-04-08T02:57:46;95208.38;;;5.16;100.00
28626;BME280;18905;42.668;23.364;2023-04-08T03:00:12;95164.41;;;4.60;100.00
28626;BME280;18905;42.668;23.364;2023-04-08T03:02:38;95204.78;;;4.97;100.00
28626;BME280;18905;42.668;23.364;2023-04-08T03:05:04;95212.81;;;4.97;100.00
28626;BME280;18905;42.668;23.364;2023-04-08T03:07:30;95187.69;;;4.93;100.00
28626;BME280;18905;42.668;23.364;2023-04-08T03:09:56;95133.13;;;4.55;100.00
28626;BME280;18905;42.668;23.364;2023-04-08T03:12:21;95217.34;;;4.96;100.00
28626;BME280;18905;42.668;23.364;2023-04-08T03:14:48;95192.50;;;4.91;100.00
28626;BME280;18905;42.668;23.364;2023-04-08T03:17:13;95191.50;;;4.82;100.00
28626;BME280;18905;42.668;23.364;2023-04-08T03:19:39;95121.97;;;4.43;100.00
28626;BME280;18905;42.668;23.364;2023-04-08T03:22:04;95191.19;;;4.88;100.00
28626;BME280;18905;42.668;23.364;2023-04-08T03:24:30;95177.44;;;4.71;100.00
28626;BME280;18905;42.668;23.364;2023-04-08T03:26:55;95211.72;;;4.98;100.00
28626;BME280;18905;42.668;23.364;2023-04-08T03:29:20;95192.31;;;4.82;100.00
28626;BME280;18905;42.668;23.364;2023-04-08T03:31:46;95177.06;;;4.83;100.00
28626;BME280;18905;42.668;23.364;2023-04-08T03:34:11;95177.78;;;4.93;100.00
28626;BME280;18905;42.668;23.364;2023-04-08T03:36:37;95164.78;;;4.77;100.00
28626;BME280;18905;42.668;23.364;2023-04-08T03:39:02;95170.88;;;4.87;100.00
28626;BME280;18905;42.668;23.364;2023-04-08T03:41:28;95219.59;;;5.18;100.00
28626;BME280;18905;42.668;23.364;2023-04-08T03:43:53;95208.53;;;4.96;100.00
28626;BME280;18905;42.668;23.364;2023-04-08T03:46:19;95211.22;;;4.91;100.00
28626;BME280;18905;42.668;23.364;2023-04-08T03:48:44;95195.25;;;4.81;100.00
28626;BME280;18905;42.668;23.364;2023-04-08T03:51:10;95192.13;;;4.69;100.00
28626;BME280;18905;42.668;23.364;2023-04-08T03:53:35;95220.56;;;4.93;100.00
28626;BME280;18905;42.668;23.364;2023-04-08T03:56:01;95202.16;;;4.87;100.00
28626;BME280;18905;42.668;23.364;2023-04-08T03:58:27;95172.31;;;4.75;100.00
28626;BME280;18905;42.668;23.364;2023-04-08T04:00:53;95202.38;;;4.95;100.00
28626;BME280;18905;42.668;23.364;2023-04-08T04:03:18;95186.72;;;4.79;100.00
28626;BME280;18905;42.668;23.364;2023-04-08T04:05:44;95208.84;;;4.89;100.00
28626;BME280;18905;42.668;23.364;2023-04-08T04:08:10;95216.50;;;5.06;100.00
28626;BME280;18905;42.668;23.364;2023-04-08T04:10:35;95187.06;;;5.01;100.00
28626;BME280;18905;42.668;23.364;2023-04-08T04:13:00;95199.75;;;5.19;100.00
28626;BME280;18905;42.668;23.364;2023-04-08T04:15:27;95180.91;;;5.34;100.00
28626;BME280;18905;42.668;23.364;2023-04-08T04:17:52;95184.09;;;5.36;100.00
28626;BME280;18905;42.668;23.364;2023-04-08T04:20:18;95207.84;;;5.42;100.00
28626;BME280;18905;42.668;23.364;2023-04-08T04:22:44;95206.63;;;5.30;100.00
28626;BME280;18905;42.668;23.364;2023-04-08T04:25:09;95215.88;;;5.42;100.00
28626;BME280;18905;42.668;23.364;2023-04-08T04:27:35;95141.44;;;4.87;100.00
28626;BME280;18905;42.668;23.364;2023-04-08T04:30:04;95214.78;;;5.20;100.00
28626;BME280;18905;42.668;23.364;2023-04-08T04:32:29;95206.97;;;5.23;100.00
28626;BME280;18905;42.668;23.364;2023-04-08T04:34:55;95208.16;;;5.12;100.00
28626;BME280;18905;42.668;23.364;2023-04-08T04:37:21;95165.84;;;4.81;100.00
28626;BME280;18905;42.668;23.364;2023-04-08T04:39:46;95150.69;;;5.00;100.00
28626;BME280;18905;42.668;23.364;2023-04-08T04:42:12;95212.56;;;5.55;100.00
28626;BME280;18905;42.668;23.364;2023-04-08T04:44:37;95225.72;;;5.75;100.00
28626;BME280;18905;42.668;23.364;2023-04-08T04:47:02;95224.41;;;5.73;100.00
28626;BME280;18905;42.668;23.364;2023-04-08T04:49:28;95183.97;;;5.46;100.00
28626;BME280;18905;42.668;23.364;2023-04-08T04:51:53;95180.25;;;5.18;100.00
28626;BME280;18905;42.668;23.364;2023-04-08T04:54:19;95176.97;;;5.26;100.00
28626;BME280;18905;42.668;23.364;2023-04-08T04:56:44;95167.63;;;5.24;100.00
28626;BME280;18905;42.668;23.364;2023-04-08T04:59:10;95169.22;;;4.91;100.00
28626;BME280;18905;42.668;23.364;2023-04-08T05:01:35;95199.50;;;5.20;100.00
28626;BME280;18905;42.668;23.364;2023-04-08T05:04:01;95170.66;;;5.12;100.00
28626;BME280;18905;42.668;23.364;2023-04-08T05:06:26;95227.81;;;5.55;100.00
28626;BME280;18905;42.668;23.364;2023-04-08T05:08:52;95197.28;;;5.27;100.00
28626;BME280;18905;42.668;23.364;2023-04-08T05:11:18;95143.75;;;4.99;100.00
28626;BME280;18905;42.668;23.364;2023-04-08T05:13:44;95181.00;;;5.24;100.00
28626;BME280;18905;42.668;23.364;2023-04-08T05:16:09;95214.03;;;5.43;100.00
28626;BME280;18905;42.668;23.364;2023-04-08T05:18:35;95228.34;;;5.57;100.00
28626;BME280;18905;42.668;23.364;2023-04-08T05:21:01;95218.19;;;5.54;100.00
28626;BME280;18905;42.668;23.364;2023-04-08T05:23:27;95189.81;;;5.53;100.00
28626;BME280;18905;42.668;23.364;2023-04-08T05:25:52;95235.31;;;5.86;100.00
28626;BME280;18905;42.668;23.364;2023-04-08T05:28:17;95163.66;;;5.45;100.00
28626;BME280;18905;42.668;23.364;2023-04-08T05:30:50;95227.34;;;5.76;100.00
28626;BME280;18905;42.668;23.364;2023-04-08T05:33:16;95164.19;;;5.47;100.00
28626;BME280;18905;42.668;23.364;2023-04-08T05:35:41;95150.31;;;5.40;100.00
28626;BME280;18905;42.668;23.364;2023-04-08T05:38:07;95240.63;;;5.91;100.00
28626;BME280;18905;42.668;23.364;2023-04-08T05:40:32;95205.09;;;5.81;100.00
28626;BME280;18905;42.668;23.364;2023-04-08T05:42:58;95128.84;;;5.45;100.00
28626;BME280;18905;42.668;23.364;2023-04-08T05:45:23;95177.78;;;5.74;100.00
28626;BME280;18905;42.668;23.364;2023-04-08T05:47:48;95206.59;;;6.34;100.00
28626;BME280;18905;42.668;23.364;2023-04-08T05:50:14;95224.00;;;6.36;100.00
28626;BME280;18905;42.668;23.364;2023-04-08T05:52:43;95210.09;;;6.11;100.00
28626;BME280;18905;42.668;23.364;2023-04-08T05:55:09;95210.09;;;6.11;100.00
28626;BME280;18905;42.668;23.364;2023-04-08T05:57:35;95195.16;;;6.05;100.00
28626;BME280;18905;42.668;23.364;2023-04-08T06:00:00;95232.25;;;6.40;100.00
28626;BME280;18905;42.668;23.364;2023-04-08T06:02:26;95224.28;;;6.53;100.00
28626;BME280;18905;42.668;23.364;2023-04-08T06:04:51;95226.56;;;6.83;100.00
28626;BME280;18905;42.668;23.364;2023-04-08T06:07:17;95203.41;;;6.87;100.00
28626;BME280;18905;42.668;23.364;2023-04-08T06:09:42;95189.63;;;6.94;100.00
28626;BME280;18905;42.668;23.364;2023-04-08T06:12:07;95214.03;;;7.11;100.00
28626;BME280;18905;42.668;23.364;2023-04-08T06:14:33;95232.38;;;7.22;100.00
28626;BME280;18905;42.668;23.364;2023-04-08T06:16:58;95231.88;;;7.39;100.00
28626;BME280;18905;42.668;23.364;2023-04-08T06:19:24;95223.41;;;7.13;100.00
28626;BME280;18905;42.668;23.364;2023-04-08T06:21:49;95142.72;;;7.05;100.00
28626;BME280;18905;42.668;23.364;2023-04-08T06:24:15;95179.97;;;7.25;100.00
28626;BME280;18905;42.668;23.364;2023-04-08T06:26:41;95226.13;;;8.18;100.00
28626;BME280;18905;42.668;23.364;2023-04-08T06:29:06;95133.06;;;7.36;100.00
28626;BME280;18905;42.668;23.364;2023-04-08T06:31:32;95142.00;;;6.99;100.00
28626;BME280;18905;42.668;23.364;2023-04-08T06:33:58;95175.75;;;7.37;100.00
28626;BME280;18905;42.668;23.364;2023-04-08T06:36:23;95226.97;;;7.73;100.00
28626;BME280;18905;42.668;23.364;2023-04-08T06:38:48;95218.38;;;7.57;100.00
28626;BME280;18905;42.668;23.364;2023-04-08T06:41:14;95233.63;;;7.62;100.00
28626;BME280;18905;42.668;23.364;2023-04-08T06:43:39;95192.91;;;7.23;100.00
28626;BME280;18905;42.668;23.364;2023-04-08T06:46:05;95190.59;;;7.16;100.00
28626;BME280;18905;42.668;23.364;2023-04-08T06:48:30;95208.91;;;7.46;100.00
28626;BME280;18905;42.668;23.364;2023-04-08T06:50:57;95245.63;;;7.51;100.00
28626;BME280;18905;42.668;23.364;2023-04-08T06:53:23;95248.03;;;7.52;100.00
28626;BME280;18905;42.668;23.364;2023-04-08T06:55:49;95242.28;;;7.59;100.00
28626;BME280;18905;42.668;23.364;2023-04-08T06:58:14;95197.34;;;7.46;100.00
28626;BME280;18905;42.668;23.364;2023-04-08T07:00:41;95219.81;;;7.68;100.00
28626;BME280;18905;42.668;23.364;2023-04-08T07:03:06;95239.94;;;7.84;100.00
28626;BME280;18905;42.668;23.364;2023-04-08T07:05:31;95235.56;;;7.88;100.00
28626;BME280;18905;42.668;23.364;2023-04-08T07:07:59;95224.38;;;7.81;100.00
28626;BME280;18905;42.668;23.364;2023-04-08T07:10:25;95239.91;;;7.71;100.00
28626;BME280;18905;42.668;23.364;2023-04-08T07:12:50;95184.94;;;7.50;100.00
28626;BME280;18905;42.668;23.364;2023-04-08T07:15:16;95166.84;;;7.69;100.00
28626;BME280;18905;42.668;23.364;2023-04-08T07:17:42;95230.53;;;8.27;100.00
28626;BME280;18905;42.668;23.364;2023-04-08T07:20:08;95232.38;;;8.13;100.00
28626;BME280;18905;42.668;23.364;2023-04-08T07:22:33;95230.59;;;8.09;100.00
28626;BME280;18905;42.668;23.364;2023-04-08T07:24:59;95196.00;;;7.89;100.00
28626;BME280;18905;42.668;23.364;2023-04-08T07:27:24;95228.78;;;7.91;100.00
28626;BME280;18905;42.668;23.364;2023-04-08T07:29:53;95251.69;;;8.02;100.00
28626;BME280;18905;42.668;23.364;2023-04-08T07:32:19;95240.44;;;8.00;100.00
28626;BME280;18905;42.668;23.364;2023-04-08T07:34:45;95249.13;;;8.10;100.00
28626;BME280;18905;42.668;23.364;2023-04-08T07:37:10;95235.59;;;8.29;100.00
28626;BME280;18905;42.668;23.364;2023-04-08T07:39:36;95251.84;;;8.64;100.00
28626;BME280;18905;42.668;23.364;2023-04-08T07:42:01;95247.50;;;8.90;100.00
28626;BME280;18905;42.668;23.364;2023-04-08T07:44:26;95258.78;;;9.14;100.00
28626;BME280;18905;42.668;23.364;2023-04-08T07:46:52;95253.97;;;9.25;100.00
28626;BME280;18905;42.668;23.364;2023-04-08T07:49:17;95255.31;;;9.14;100.00
28626;BME280;18905;42.668;23.364;2023-04-08T07:51:43;95258.09;;;9.44;100.00
28626;BME280;18905;42.668;23.364;2023-04-08T07:54:08;95227.03;;;9.25;100.00
28626;BME280;18905;42.668;23.364;2023-04-08T07:56:44;95249.88;;;9.27;100.00
28626;BME280;18905;42.668;23.364;2023-04-08T07:59:12;95258.78;;;9.50;100.00
28626;BME280;18905;42.668;23.364;2023-04-08T08:01:38;95264.94;;;9.72;100.00
28626;BME280;18905;42.668;23.364;2023-04-08T08:04:03;95264.31;;;9.97;100.00
28626;BME280;18905;42.668;23.364;2023-04-08T08:06:29;95230.59;;;9.86;100.00
28626;BME280;18905;42.668;23.364;2023-04-08T08:08:56;95270.94;;;10.13;99.83
28626;BME280;18905;42.668;23.364;2023-04-08T08:11:22;95256.50;;;9.65;100.00
28626;BME280;18905;42.668;23.364;2023-04-08T08:13:47;95279.38;;;9.68;100.00
28626;BME280;18905;42.668;23.364;2023-04-08T08:16:13;95276.59;;;9.59;100.00
28626;BME280;18905;42.668;23.364;2023-04-08T08:18:39;95239.91;;;9.72;100.00
28626;BME280;18905;42.668;23.364;2023-04-08T08:21:05;95270.28;;;9.64;100.00
28626;BME280;18905;42.668;23.364;2023-04-08T08:23:30;95278.28;;;10.21;100.00
28626;BME280;18905;42.668;23.364;2023-04-08T08:26:06;95272.44;;;10.28;97.62
28626;BME280;18905;42.668;23.364;2023-04-08T08:28:34;95263.38;;;10.02;100.00
28626;BME280;18905;42.668;23.364;2023-04-08T08:30:59;95255.41;;;9.44;100.00
28626;BME280;18905;42.668;23.364;2023-04-08T08:33:25;95269.91;;;9.79;100.00
28626;BME280;18905;42.668;23.364;2023-04-08T08:35:51;95274.44;;;11.77;100.00
28626;BME280;18905;42.668;23.364;2023-04-08T08:38:17;95273.06;;;12.34;100.00
28626;BME280;18905;42.668;23.364;2023-04-08T08:40:43;95280.03;;;13.60;100.00
28626;BME280;18905;42.668;23.364;2023-04-08T08:43:12;95288.13;;;14.33;99.74
28626;BME280;18905;42.668;23.364;2023-04-08T08:45:41;95286.13;;;16.02;79.54
28626;BME280;18905;42.668;23.364;2023-04-08T08:48:07;95287.69;;;14.31;66.19
28626;BME280;18905;42.668;23.364;2023-04-08T08:50:34;95279.16;;;12.98;74.00
28626;BME280;18905;42.668;23.364;2023-04-08T08:53:00;95266.16;;;11.82;80.95
28626;BME280;18905;42.668;23.364;2023-04-08T08:55:29;95284.78;;;11.24;85.15
28626;BME280;18905;42.668;23.364;2023-04-08T08:57:56;95276.44;;;10.78;92.50
28626;BME280;18905;42.668;23.364;2023-04-08T09:00:35;95275.25;;;10.53;95.43
28626;BME280;18905;42.668;23.364;2023-04-08T09:03:20;95286.91;;;11.61;100.00
28626;BME280;18905;42.668;23.364;2023-04-08T09:08:35;95283.38;;;13.98;86.51
28626;BME280;18905;42.668;23.364;2023-04-08T09:11:19;95279.88;;;13.15;77.23
28626;BME280;18905;42.668;23.364;2023-04-08T09:13:48;95291.97;;;11.71;85.59
28626;BME280;18905;42.668;23.364;2023-04-08T09:16:15;95288.09;;;11.29;87.64
28626;BME280;18905;42.668;23.364;2023-04-08T09:18:42;95266.31;;;11.09;90.99
28626;BME280;18905;42.668;23.364;2023-04-08T09:21:10;95277.25;;;10.87;94.51
28626;BME280;18905;42.668;23.364;2023-04-08T09:26:08;95254.84;;;10.39;99.59
28626;BME280;18905;42.668;23.364;2023-04-08T09:28:35;95285.44;;;10.65;98.28
28626;BME280;18905;42.668;23.364;2023-04-08T09:31:00;95270.13;;;10.43;94.04
28626;BME280;18905;42.668;23.364;2023-04-08T09:33:30;95278.97;;;10.35;97.79
28626;BME280;18905;42.668;23.364;2023-04-08T09:35:56;95236.53;;;10.19;99.25
28626;BME280;18905;42.668;23.364;2023-04-08T09:38:22;95266.31;;;10.44;98.06
28626;BME280;18905;42.668;23.364;2023-04-08T09:40:48;95275.75;;;10.64;97.91
28626;BME280;18905;42.668;23.364;2023-04-08T09:43:17;95246.56;;;10.27;99.84
28626;BME280;18905;42.668;23.364;2023-04-08T09:45:46;95261.06;;;10.95;95.39
28626;BME280;18905;42.668;23.364;2023-04-08T09:48:16;95238.19;;;11.35;89.61
28626;BME280;18905;42.668;23.364;2023-04-08T09:50:46;95244.06;;;11.80;83.89
28626;BME280;18905;42.668;23.364;2023-04-08T09:53:19;95194.41;;;11.59;87.62
28626;BME280;18905;42.668;23.364;2023-04-08T09:55:49;95252.59;;;12.16;85.63
28626;BME280;18905;42.668;23.364;2023-04-08T09:58:38;95244.53;;;10.88;88.67
28626;BME280;18905;42.668;23.364;2023-04-08T10:01:07;95266.97;;;11.48;85.04
28626;BME280;18905;42.668;23.364;2023-04-08T10:03:39;95247.09;;;11.61;84.75
28626;BME280;18905;42.668;23.364;2023-04-08T10:06:09;95223.38;;;12.30;80.84
28626;BME280;18905;42.668;23.364;2023-04-08T10:08:36;95218.59;;;12.65;77.25
28626;BME280;18905;42.668;23.364;2023-04-08T10:11:01;95164.72;;;12.43;75.88
28626;BME280;18905;42.668;23.364;2023-04-08T10:13:27;95233.41;;;12.30;80.71
28626;BME280;18905;42.668;23.364;2023-04-08T10:16:24;95243.19;;;12.05;80.66
28626;BME280;18905;42.668;23.364;2023-04-08T10:18:52;95244.09;;;11.63;83.29
28626;BME280;18905;42.668;23.364;2023-04-08T10:23:58;95219.59;;;11.51;82.08
28626;BME280;18905;42.668;23.364;2023-04-08T10:26:31;95225.63;;;11.22;87.02
28626;BME280;18905;42.668;23.364;2023-04-08T10:31:42;95242.00;;;11.51;84.75
28626;BME280;18905;42.668;23.364;2023-04-08T10:34:21;95218.94;;;11.20;86.04
28626;BME280;18905;42.668;23.364;2023-04-08T10:36:49;95233.41;;;11.07;87.68
28626;BME280;18905;42.668;23.364;2023-04-08T10:39:15;95232.94;;;11.22;86.88
28626;BME280;18905;42.668;23.364;2023-04-08T10:41:42;95229.44;;;11.30;86.45
28626;BME280;18905;42.668;23.364;2023-04-08T10:44:28;95218.97;;;11.37;83.62
28626;BME280;18905;42.668;23.364;2023-04-08T10:46:53;95231.34;;;11.38;83.20
28626;BME280;18905;42.668;23.364;2023-04-08T10:49:19;95198.59;;;11.65;82.42
28626;BME280;18905;42.668;23.364;2023-04-08T10:51:47;95190.75;;;11.81;81.23
28626;BME280;18905;42.668;23.364;2023-04-08T10:54:14;95215.72;;;11.86;79.82
28626;BME280;18905;42.668;23.364;2023-04-08T10:56:50;95212.38;;;12.35;76.89
28626;BME280;18905;42.668;23.364;2023-04-08T10:59:26;95187.22;;;11.88;77.76
28626;BME280;18905;42.668;23.364;2023-04-08T11:01:52;95170.22;;;11.88;77.45
28626;BME280;18905;42.668;23.364;2023-04-08T11:04:17;95195.41;;;12.18;75.51
28626;BME280;18905;42.668;23.364;2023-04-08T11:06:45;95189.59;;;12.36;74.80
28626;BME280;18905;42.668;23.364;2023-04-08T11:09:12;95189.31;;;11.83;77.94
28626;BME280;18905;42.668;23.364;2023-04-08T11:11:40;95179.31;;;11.41;84.50
28626;BME280;18905;42.668;23.364;2023-04-08T11:14:06;95189.38;;;11.32;81.93
28626;BME280;18905;42.668;23.364;2023-04-08T11:16:33;95193.00;;;11.36;80.85
28626;BME280;18905;42.668;23.364;2023-04-08T11:19:01;95185.94;;;12.32;75.19
28626;BME280;18905;42.668;23.364;2023-04-08T11:21:27;95176.31;;;13.01;70.55
28626;BME280;18905;42.668;23.364;2023-04-08T11:23:53;95187.19;;;12.43;71.54
28626;BME280;18905;42.668;23.364;2023-04-08T11:26:18;95180.69;;;12.36;70.83
28626;BME280;18905;42.668;23.364;2023-04-08T11:28:45;95188.19;;;12.88;69.80
28626;BME280;18905;42.668;23.364;2023-04-08T11:31:13;95184.81;;;13.85;92.32
28626;BME280;18905;42.668;23.364;2023-04-08T11:33:48;95183.34;;;13.02;70.37
28626;BME280;18905;42.668;23.364;2023-04-08T11:36:17;95179.38;;;12.91;69.91
28626;BME280;18905;42.668;23.364;2023-04-08T11:38:43;95175.25;;;13.14;69.50
28626;BME280;18905;42.668;23.364;2023-04-08T11:41:09;95171.59;;;13.10;69.28
28626;BME280;18905;42.668;23.364;2023-04-08T11:43:36;95169.28;;;13.41;65.26
28626;BME280;18905;42.668;23.364;2023-04-08T11:46:11;95155.81;;;13.33;63.12
28626;BME280;18905;42.668;23.364;2023-04-08T11:48:37;95157.88;;;13.36;61.95
28626;BME280;18905;42.668;23.364;2023-04-08T11:51:07;95153.53;;;12.73;63.66
28626;BME280;18905;42.668;23.364;2023-04-08T11:53:37;95112.81;;;12.61;64.76
28626;BME280;18905;42.668;23.364;2023-04-08T11:56:19;95137.81;;;12.38;64.85
28626;BME280;18905;42.668;23.364;2023-04-08T11:58:45;95160.47;;;12.62;66.80
28626;BME280;18905;42.668;23.364;2023-04-08T12:01:12;95121.34;;;12.51;66.56
28626;BME280;18905;42.668;23.364;2023-04-08T12:03:37;95135.22;;;12.70;67.54
28626;BME280;18905;42.668;23.364;2023-04-08T12:06:03;95138.81;;;13.24;66.61
28626;BME280;18905;42.668;23.364;2023-04-08T12:08:30;95136.19;;;13.48;64.49
28626;BME280;18905;42.668;23.364;2023-04-08T12:10:55;95141.81;;;13.75;63.71
28626;BME280;18905;42.668;23.364;2023-04-08T12:13:21;95141.63;;;14.04;61.21
28626;BME280;18905;42.668;23.364;2023-04-08T12:15:46;95146.31;;;13.06;62.37
28626;BME280;18905;42.668;23.364;2023-04-08T12:18:12;95148.50;;;13.45;63.04
28626;BME280;18905;42.668;23.364;2023-04-08T12:20:38;95130.66;;;13.44;62.19
28626;BME280;18905;42.668;23.364;2023-04-08T12:23:04;95133.25;;;13.41;61.18
28626;BME280;18905;42.668;23.364;2023-04-08T12:25:29;95150.72;;;13.31;61.57
28626;BME280;18905;42.668;23.364;2023-04-08T12:27:55;95131.94;;;13.59;61.76
28626;BME280;18905;42.668;23.364;2023-04-08T12:30:21;95109.59;;;12.88;60.35
28626;BME280;18905;42.668;23.364;2023-04-08T12:32:46;95159.47;;;13.49;61.75
28626;BME280;18905;42.668;23.364;2023-04-08T12:35:12;95140.88;;;13.27;62.90
28626;BME280;18905;42.668;23.364;2023-04-08T12:37:38;95122.38;;;13.08;64.02
28626;BME280;18905;42.668;23.364;2023-04-08T12:40:03;95119.38;;;13.01;64.29
28626;BME280;18905;42.668;23.364;2023-04-08T12:42:29;95119.72;;;12.79;64.95
28626;BME280;18905;42.668;23.364;2023-04-08T12:44:55;95122.78;;;12.69;65.74
28626;BME280;18905;42.668;23.364;2023-04-08T12:47:20;95123.25;;;12.51;68.37
28626;BME280;18905;42.668;23.364;2023-04-08T12:49:46;95109.72;;;12.51;70.68
28626;BME280;18905;42.668;23.364;2023-04-08T12:52:11;95113.75;;;12.65;71.99
28626;BME280;18905;42.668;23.364;2023-04-08T12:54:37;95117.69;;;12.18;75.10
28626;BME280;18905;42.668;23.364;2023-04-08T12:57:02;95114.03;;;12.14;75.32
28626;BME280;18905;42.668;23.364;2023-04-08T12:59:28;95123.28;;;12.22;76.09